sensor_id;sensor_type;location;lat;lon;timestamp;P1;durP1;ratioP1;P2;durP2;ratioP2
44816;SDS011;30529;53.570;9.964;2023-04-01T00:00:55;9.80;;;4.03;;
44816;SDS011;30529;53.570;9.964;2023-04-01T00:03:24;7.30;;;3.93;;
44816;SDS011;30529;53.570;9.964;2023-04-01T00:05:52;8.40;;;3.87;;
44816;SDS011;30529;53.570;9.964;2023-04-01T00:08:19;12.20;;;4.17;;
44816;SDS011;30529;53.570;9.964;2023-04-01T00:10:45;6.27;;;3.90;;
44816;SDS011;30529;53.570;9.964;2023-04-01T00:13:11;8.47;;;4.03;;
44816;SDS011;30529;53.570;9.964;2023-04-01T00:15:38;7.03;;;4.10;;
44816;SDS011;30529;53.570;9.964;2023-04-01T00:18:06;8.57;;;3.87;;
44816;SDS011;30529;53.570;9.964;2023-04-01T00:20:32;8.20;;;4.17;;
44816;SDS011;30529;53.570;9.964;2023-04-01T00:22:58;9.03;;;4.13;;
44816;SDS011;30529;53.570;9.964;2023-04-01T00:25:24;13.67;;;4.37;;
44816;SDS011;30529;53.570;9.964;2023-04-01T00:27:50;8.13;;;4.43;;
44816;SDS011;30529;53.570;9.964;2023-04-01T00:30:16;9.40;;;4.30;;
44816;SDS011;30529;53.570;9.964;2023-04-01T00:32:43;6.03;;;4.23;;
44816;SDS011;30529;53.570;9.964;2023-04-01T00:35:09;7.20;;;4.30;;
44816;SDS011;30529;53.570;9.964;2023-04-01T00:37:35;9.50;;;4.43;;
44816;SDS011;30529;53.570;9.964;2023-04-01T00:40:03;9.40;;;4.33;;
44816;SDS011;30529;53.570;9.964;2023-04-01T00:42:30;8.43;;;4.30;;
44816;SDS011;30529;53.570;9.964;2023-04-01T00:44:57;6.57;;;3.87;;
44816;SDS011;30529;53.570;9.964;2023-04-01T00:47:23;7.90;;;4.67;;
44816;SDS011;30529;53.570;9.964;2023-04-01T00:49:51;8.87;;;4.37;;
44816;SDS011;30529;53.570;9.964;2023-04-01T00:52:23;7.57;;;4.47;;
44816;SDS011;30529;53.570;9.964;2023-04-01T00:54:53;6.67;;;3.80;;
44816;SDS011;30529;53.570;9.964;2023-04-01T00:57:30;8.90;;;4.60;;
44816;SDS011;30529;53.570;9.964;2023-04-01T00:59:59;9.10;;;4.53;;
44816;SDS011;30529;53.570;9.964;2023-04-01T01:02:26;7.47;;;4.60;;
44816;SDS011;30529;53.570;9.964;2023-04-01T01:04:52;7.80;;;5.00;;
44816;SDS011;30529;53.570;9.964;2023-04-01T01:12:47;7.47;;;4.43;;
44816;SDS011;30529;53.570;9.964;2023-04-01T01:21:04;6.17;;;4.07;;
44816;SDS011;30529;53.570;9.964;2023-04-01T01:26:57;7.50;;;3.90;;
44816;SDS011;30529;53.570;9.964;2023-04-01T01:37:58;10.93;;;4.53;;
44816;SDS011;30529;53.570;9.964;2023-04-01T01:40:27;9.93;;;4.37;;
44816;SDS011;30529;53.570;9.964;2023-04-01T01:42:58;8.20;;;4.20;;
44816;SDS011;30529;53.570;9.964;2023-04-01T01:45:28;12.80;;;4.33;;
44816;SDS011;30529;53.570;9.964;2023-04-01T01:47:56;7.17;;;3.90;;
44816;SDS011;30529;53.570;9.964;2023-04-01T01:50:27;7.53;;;4.27;;
44816;SDS011;30529;53.570;9.964;2023-04-01T01:53:03;9.87;;;4.10;;
44816;SDS011;30529;53.570;9.964;2023-04-01T01:55:34;7.73;;;4.33;;
44816;SDS011;30529;53.570;9.964;2023-04-01T01:58:07;6.63;;;4.40;;
44816;SDS011;30529;53.570;9.964;2023-04-01T02:00:38;8.03;;;4.10;;
44816;SDS011;30529;53.570;9.964;2023-04-01T02:03:05;8.07;;;4.30;;
44816;SDS011;30529;53.570;9.964;2023-04-01T02:05:32;7.30;;;3.90;;
44816;SDS011;30529;53.570;9.964;2023-04-01T02:08:14;8.33;;;4.07;;
44816;SDS011;30529;53.570;9.964;2023-04-01T02:10:49;6.67;;;3.33;;
44816;SDS011;30529;53.570;9.964;2023-04-01T02:13:45;7.00;;;3.77;;
44816;SDS011;30529;53.570;9.964;2023-04-01T02:16:15;7.07;;;3.60;;
44816;SDS011;30529;53.570;9.964;2023-04-01T02:18:47;7.10;;;4.00;;
44816;SDS011;30529;53.570;9.964;2023-04-01T02:21:16;10.67;;;4.30;;
44816;SDS011;30529;53.570;9.964;2023-04-01T02:23:44;6.97;;;3.70;;
44816;SDS011;30529;53.570;9.964;2023-04-01T02:26:12;6.47;;;3.20;;
44816;SDS011;30529;53.570;9.964;2023-04-01T02:28:39;8.43;;;3.87;;
44816;SDS011;30529;53.570;9.964;2023-04-01T02:31:11;6.60;;;3.67;;
44816;SDS011;30529;53.570;9.964;2023-04-01T02:33:39;7.00;;;3.70;;
44816;SDS011;30529;53.570;9.964;2023-04-01T02:36:05;7.97;;;3.90;;
44816;SDS011;30529;53.570;9.964;2023-04-01T02:38:35;7.87;;;3.57;;
44816;SDS011;30529;53.570;9.964;2023-04-01T02:41:01;9.47;;;4.10;;
44816;SDS011;30529;53.570;9.964;2023-04-01T02:43:28;4.40;;;3.33;;
44816;SDS011;30529;53.570;9.964;2023-04-01T02:45:54;6.93;;;3.60;;
44816;SDS011;30529;53.570;9.964;2023-04-01T02:48:20;7.00;;;3.67;;
44816;SDS011;30529;53.570;9.964;2023-04-01T02:50:47;8.43;;;3.50;;
44816;SDS011;30529;53.570;9.964;2023-04-01T02:53:14;6.40;;;3.70;;
44816;SDS011;30529;53.570;9.964;2023-04-01T02:55:40;5.60;;;3.63;;
44816;SDS011;30529;53.570;9.964;2023-04-01T02:58:06;10.30;;;3.47;;
44816;SDS011;30529;53.570;9.964;2023-04-01T03:00:32;8.23;;;4.37;;
44816;SDS011;30529;53.570;9.964;2023-04-01T03:02:59;4.87;;;3.50;;
44816;SDS011;30529;53.570;9.964;2023-04-01T03:05:25;7.03;;;4.20;;
44816;SDS011;30529;53.570;9.964;2023-04-01T03:07:51;9.73;;;4.73;;
44816;SDS011;30529;53.570;9.964;2023-04-01T03:10:17;10.77;;;6.33;;
44816;SDS011;30529;53.570;9.964;2023-04-01T03:12:43;8.80;;;5.67;;
44816;SDS011;30529;53.570;9.964;2023-04-01T03:15:09;8.60;;;5.83;;
44816;SDS011;30529;53.570;9.964;2023-04-01T03:17:37;11.13;;;7.07;;
44816;SDS011;30529;53.570;9.964;2023-04-01T03:20:04;15.07;;;9.27;;
44816;SDS011;30529;53.570;9.964;2023-04-01T03:22:31;15.57;;;10.67;;
44816;SDS011;30529;53.570;9.964;2023-04-01T03:24:57;17.33;;;10.50;;
44816;SDS011;30529;53.570;9.964;2023-04-01T03:27:23;13.87;;;8.07;;
44816;SDS011;30529;53.570;9.964;2023-04-01T03:29:49;12.80;;;6.20;;
44816;SDS011;30529;53.570;9.964;2023-04-01T03:32:15;10.33;;;5.97;;
44816;SDS011;30529;53.570;9.964;2023-04-01T03:34:41;12.73;;;6.33;;
44816;SDS011;30529;53.570;9.964;2023-04-01T03:37:07;8.70;;;4.83;;
44816;SDS011;30529;53.570;9.964;2023-04-01T03:39:33;8.30;;;5.40;;
44816;SDS011;30529;53.570;9.964;2023-04-01T03:41:58;11.50;;;4.57;;
44816;SDS011;30529;53.570;9.964;2023-04-01T03:44:25;7.30;;;4.87;;
44816;SDS011;30529;53.570;9.964;2023-04-01T03:46:51;7.50;;;4.40;;
44816;SDS011;30529;53.570;9.964;2023-04-01T03:49:17;8.57;;;4.43;;
44816;SDS011;30529;53.570;9.964;2023-04-01T03:51:43;8.37;;;3.90;;
44816;SDS011;30529;53.570;9.964;2023-04-01T03:54:09;8.03;;;4.07;;
44816;SDS011;30529;53.570;9.964;2023-04-01T03:56:36;8.40;;;4.00;;
44816;SDS011;30529;53.570;9.964;2023-04-01T03:59:03;7.77;;;4.37;;
44816;SDS011;30529;53.570;9.964;2023-04-01T04:01:30;7.10;;;4.70;;
44816;SDS011;30529;53.570;9.964;2023-04-01T04:03:56;7.27;;;3.97;;
44816;SDS011;30529;53.570;9.964;2023-04-01T04:06:23;8.00;;;3.73;;
44816;SDS011;30529;53.570;9.964;2023-04-01T04:08:53;6.63;;;4.10;;
44816;SDS011;30529;53.570;9.964;2023-04-01T04:11:19;9.33;;;3.97;;
44816;SDS011;30529;53.570;9.964;2023-04-01T04:13:47;7.13;;;4.10;;
44816;SDS011;30529;53.570;9.964;2023-04-01T04:16:13;5.57;;;4.00;;
44816;SDS011;30529;53.570;9.964;2023-04-01T04:18:40;7.00;;;4.23;;
44816;SDS011;30529;53.570;9.964;2023-04-01T04:21:06;5.47;;;4.17;;
44816;SDS011;30529;53.570;9.964;2023-04-01T04:23:32;6.57;;;4.17;;
44816;SDS011;30529;53.570;9.964;2023-04-01T04:26:01;9.97;;;4.37;;
44816;SDS011;30529;53.570;9.964;2023-04-01T04:28:29;5.63;;;4.03;;
44816;SDS011;30529;53.570;9.964;2023-04-01T04:30:55;7.10;;;3.67;;
44816;SDS011;30529;53.570;9.964;2023-04-01T04:33:21;7.43;;;3.87;;
44816;SDS011;30529;53.570;9.964;2023-04-01T04:35:48;6.50;;;4.37;;
44816;SDS011;30529;53.570;9.964;2023-04-01T04:38:15;8.60;;;4.43;;
44816;SDS011;30529;53.570;9.964;2023-04-01T04:40:41;6.43;;;4.40;;
44816;SDS011;30529;53.570;9.964;2023-04-01T04:43:09;6.33;;;4.10;;
44816;SDS011;30529;53.570;9.964;2023-04-01T04:45:36;5.47;;;4.20;;
44816;SDS011;30529;53.570;9.964;2023-04-01T04:48:02;5.67;;;4.07;;
44816;SDS011;30529;53.570;9.964;2023-04-01T04:50:28;10.20;;;5.37;;
44816;SDS011;30529;53.570;9.964;2023-04-01T04:52:54;8.73;;;4.30;;
44816;SDS011;30529;53.570;9.964;2023-04-01T04:55:20;5.20;;;3.90;;
44816;SDS011;30529;53.570;9.964;2023-04-01T04:57:47;7.40;;;4.43;;
44816;SDS011;30529;53.570;9.964;2023-04-01T05:00:13;6.97;;;4.47;;
44816;SDS011;30529;53.570;9.964;2023-04-01T05:02:39;6.27;;;4.03;;
44816;SDS011;30529;53.570;9.964;2023-04-01T05:05:07;6.83;;;4.97;;
44816;SDS011;30529;53.570;9.964;2023-04-01T05:07:33;8.00;;;5.43;;
44816;SDS011;30529;53.570;9.964;2023-04-01T05:09:59;8.07;;;5.10;;
44816;SDS011;30529;53.570;9.964;2023-04-01T05:12:25;8.67;;;6.47;;
44816;SDS011;30529;53.570;9.964;2023-04-01T05:14:51;8.47;;;4.43;;
44816;SDS011;30529;53.570;9.964;2023-04-01T05:17:17;5.53;;;3.67;;
44816;SDS011;30529;53.570;9.964;2023-04-01T05:19:43;7.20;;;4.83;;
44816;SDS011;30529;53.570;9.964;2023-04-01T05:22:09;5.97;;;4.40;;
44816;SDS011;30529;53.570;9.964;2023-04-01T05:24:35;7.60;;;5.23;;
44816;SDS011;30529;53.570;9.964;2023-04-01T05:27:00;8.33;;;4.70;;
44816;SDS011;30529;53.570;9.964;2023-04-01T05:29:27;8.93;;;3.77;;
44816;SDS011;30529;53.570;9.964;2023-04-01T05:31:53;5.87;;;4.30;;
44816;SDS011;30529;53.570;9.964;2023-04-01T05:34:19;1.87;;;1.50;;
44816;SDS011;30529;53.570;9.964;2023-04-01T05:36:45;1.63;;;1.30;;
44816;SDS011;30529;53.570;9.964;2023-04-01T05:39:10;1.20;;;0.97;;
44816;SDS011;30529;53.570;9.964;2023-04-01T05:41:37;1.33;;;0.90;;
44816;SDS011;30529;53.570;9.964;2023-04-01T05:44:04;0.50;;;0.50;;
44816;SDS011;30529;53.570;9.964;2023-04-01T05:46:30;1.20;;;0.83;;
44816;SDS011;30529;53.570;9.964;2023-04-01T05:48:57;0.70;;;0.70;;
44816;SDS011;30529;53.570;9.964;2023-04-01T05:51:23;0.80;;;0.77;;
44816;SDS011;30529;53.570;9.964;2023-04-01T05:53:49;0.70;;;0.70;;
44816;SDS011;30529;53.570;9.964;2023-04-01T05:56:16;1.33;;;0.90;;
44816;SDS011;30529;53.570;9.964;2023-04-01T05:58:42;0.70;;;0.63;;
44816;SDS011;30529;53.570;9.964;2023-04-01T06:01:09;0.73;;;0.70;;
44816;SDS011;30529;53.570;9.964;2023-04-01T06:03:36;1.93;;;0.90;;
44816;SDS011;30529;53.570;9.964;2023-04-01T06:06:02;0.60;;;0.60;;
44816;SDS011;30529;53.570;9.964;2023-04-01T06:08:31;0.87;;;0.80;;
44816;SDS011;30529;53.570;9.964;2023-04-01T06:13:38;0.83;;;0.80;;
44816;SDS011;30529;53.570;9.964;2023-04-01T06:16:32;1.00;;;0.80;;
44816;SDS011;30529;53.570;9.964;2023-04-01T06:31:25;0.70;;;0.70;;
44816;SDS011;30529;53.570;9.964;2023-04-01T06:34:12;0.80;;;0.77;;
44816;SDS011;30529;53.570;9.964;2023-04-01T06:45:20;1.63;;;0.90;;
44816;SDS011;30529;53.570;9.964;2023-04-01T06:51:21;1.93;;;0.93;;
44816;SDS011;30529;53.570;9.964;2023-04-01T06:54:09;1.33;;;0.80;;
44816;SDS011;30529;53.570;9.964;2023-04-01T06:56:41;1.80;;;0.70;;
44816;SDS011;30529;53.570;9.964;2023-04-01T06:59:19;1.87;;;0.90;;
44816;SDS011;30529;53.570;9.964;2023-04-01T07:04:20;0.80;;;0.80;;
44816;SDS011;30529;53.570;9.964;2023-04-01T07:06:56;2.00;;;0.80;;
44816;SDS011;30529;53.570;9.964;2023-04-01T07:09:43;0.77;;;0.50;;
44816;SDS011;30529;53.570;9.964;2023-04-01T07:12:18;1.40;;;0.80;;
44816;SDS011;30529;53.570;9.964;2023-04-01T07:14:54;1.23;;;0.80;;
44816;SDS011;30529;53.570;9.964;2023-04-01T07:17:25;1.37;;;0.80;;
44816;SDS011;30529;53.570;9.964;2023-04-01T07:19:58;0.70;;;0.70;;
44816;SDS011;30529;53.570;9.964;2023-04-01T07:22:38;0.87;;;0.60;;
44816;SDS011;30529;53.570;9.964;2023-04-01T07:25:13;0.73;;;0.60;;
44816;SDS011;30529;53.570;9.964;2023-04-01T07:27:48;0.90;;;0.73;;
44816;SDS011;30529;53.570;9.964;2023-04-01T07:30:18;1.37;;;0.50;;
44816;SDS011;30529;53.570;9.964;2023-04-01T07:33:04;0.60;;;0.60;;
44816;SDS011;30529;53.570;9.964;2023-04-01T07:35:42;0.87;;;0.70;;
44816;SDS011;30529;53.570;9.964;2023-04-01T07:38:35;0.70;;;0.60;;
44816;SDS011;30529;53.570;9.964;2023-04-01T07:41:26;1.87;;;0.70;;
44816;SDS011;30529;53.570;9.964;2023-04-01T07:44:16;4.87;;;0.80;;
44816;SDS011;30529;53.570;9.964;2023-04-01T07:47:22;0.60;;;0.60;;
44816;SDS011;30529;53.570;9.964;2023-04-01T07:50:13;1.00;;;0.70;;
44816;SDS011;30529;53.570;9.964;2023-04-01T07:52:51;0.93;;;0.60;;
44816;SDS011;30529;53.570;9.964;2023-04-01T07:55:30;1.03;;;0.80;;
44816;SDS011;30529;53.570;9.964;2023-04-01T08:06:45;0.80;;;0.63;;
44816;SDS011;30529;53.570;9.964;2023-04-01T08:09:20;1.17;;;0.67;;
44816;SDS011;30529;53.570;9.964;2023-04-01T08:11:55;1.63;;;0.70;;
44816;SDS011;30529;53.570;9.964;2023-04-01T08:25:06;1.17;;;0.70;;
44816;SDS011;30529;53.570;9.964;2023-04-01T08:27:37;0.87;;;0.80;;
44816;SDS011;30529;53.570;9.964;2023-04-01T08:32:56;2.23;;;0.90;;
44816;SDS011;30529;53.570;9.964;2023-04-01T08:35:27;1.07;;;0.80;;
44816;SDS011;30529;53.570;9.964;2023-04-01T08:38:44;0.67;;;0.57;;
44816;SDS011;30529;53.570;9.964;2023-04-01T08:41:40;1.77;;;0.70;;
44816;SDS011;30529;53.570;9.964;2023-04-01T08:44:04;1.00;;;0.70;;
44816;SDS011;30529;53.570;9.964;2023-04-01T08:46:56;0.97;;;0.53;;
44816;SDS011;30529;53.570;9.964;2023-04-01T08:55:11;0.83;;;0.60;;
44816;SDS011;30529;53.570;9.964;2023-04-01T09:06:28;1.77;;;0.70;;
44816;SDS011;30529;53.570;9.964;2023-04-01T09:12:14;2.63;;;0.70;;
44816;SDS011;30529;53.570;9.964;2023-04-01T09:18:09;1.50;;;1.10;;
44816;SDS011;30529;53.570;9.964;2023-04-01T09:21:18;0.90;;;0.60;;
44816;SDS011;30529;53.570;9.964;2023-04-01T09:30:05;1.50;;;0.80;;
44816;SDS011;30529;53.570;9.964;2023-04-01T09:36:43;2.60;;;1.33;;
44816;SDS011;30529;53.570;9.964;2023-04-01T09:38:58;0.50;;;0.50;;
44816;SDS011;30529;53.570;9.964;2023-04-01T09:41:47;2.33;;;0.80;;
44816;SDS011;30529;53.570;9.964;2023-04-01T09:44:36;0.70;;;0.50;;
44816;SDS011;30529;53.570;9.964;2023-04-01T09:55:19;0.80;;;0.60;;
44816;SDS011;30529;53.570;9.964;2023-04-01T09:57:52;2.07;;;0.60;;
44816;SDS011;30529;53.570;9.964;2023-04-01T10:18:53;1.17;;;0.67;;
44816;SDS011;30529;53.570;9.964;2023-04-01T10:24:19;0.60;;;0.60;;
44816;SDS011;30529;53.570;9.964;2023-04-01T10:30:13;1.13;;;0.60;;
44816;SDS011;30529;53.570;9.964;2023-04-01T10:41:20;1.63;;;0.60;;
44816;SDS011;30529;53.570;9.964;2023-04-01T10:47:39;1.30;;;0.43;;
44816;SDS011;30529;53.570;9.964;2023-04-01T10:54:11;0.70;;;0.50;;
44816;SDS011;30529;53.570;9.964;2023-04-01T11:02:33;0.87;;;0.60;;
44816;SDS011;30529;53.570;9.964;2023-04-01T11:14:26;0.60;;;0.60;;
44816;SDS011;30529;53.570;9.964;2023-04-01T11:23:28;0.90;;;0.70;;
44816;SDS011;30529;53.570;9.964;2023-04-01T11:31:39;0.77;;;0.60;;
44816;SDS011;30529;53.570;9.964;2023-04-01T11:34:32;0.50;;;0.50;;
44816;SDS011;30529;53.570;9.964;2023-04-01T11:37:35;1.00;;;0.80;;
44816;SDS011;30529;53.570;9.964;2023-04-01T11:43:03;1.07;;;0.67;;
44816;SDS011;30529;53.570;9.964;2023-04-01T11:45:40;3.63;;;0.80;;
44816;SDS011;30529;53.570;9.964;2023-04-01T11:50:49;1.17;;;0.80;;
44816;SDS011;30529;53.570;9.964;2023-04-01T11:59:34;1.90;;;1.13;;
44816;SDS011;30529;53.570;9.964;2023-04-01T12:05:22;2.60;;;1.37;;
44816;SDS011;30529;53.570;9.964;2023-04-01T12:10:39;1.93;;;1.30;;
44816;SDS011;30529;53.570;9.964;2023-04-01T12:18:33;2.17;;;1.47;;
44816;SDS011;30529;53.570;9.964;2023-04-01T12:41:49;2.23;;;1.57;;
44816;SDS011;30529;53.570;9.964;2023-04-01T12:44:29;4.70;;;2.00;;
44816;SDS011;30529;53.570;9.964;2023-04-01T12:56:09;2.40;;;1.70;;
44816;SDS011;30529;53.570;9.964;2023-04-01T12:59:13;2.57;;;2.00;;
44816;SDS011;30529;53.570;9.964;2023-04-01T13:01:59;3.07;;;2.10;;
44816;SDS011;30529;53.570;9.964;2023-04-01T13:04:35;3.43;;;2.33;;
44816;SDS011;30529;53.570;9.964;2023-04-01T13:07:32;2.80;;;2.00;;
44816;SDS011;30529;53.570;9.964;2023-04-01T13:15:11;5.67;;;2.27;;
44816;SDS011;30529;53.570;9.964;2023-04-01T13:18:16;3.70;;;2.10;;
44816;SDS011;30529;53.570;9.964;2023-04-01T13:24:11;2.73;;;1.77;;
44816;SDS011;30529;53.570;9.964;2023-04-01T13:26:48;4.13;;;1.30;;
44816;SDS011;30529;53.570;9.964;2023-04-01T13:29:31;2.57;;;1.23;;
44816;SDS011;30529;53.570;9.964;2023-04-01T13:32:14;4.70;;;1.70;;
44816;SDS011;30529;53.570;9.964;2023-04-01T13:34:59;6.43;;;1.60;;
44816;SDS011;30529;53.570;9.964;2023-04-01T13:43:19;2.83;;;1.70;;
44816;SDS011;30529;53.570;9.964;2023-04-01T13:46:12;2.17;;;1.50;;
44816;SDS011;30529;53.570;9.964;2023-04-01T13:48:58;3.93;;;1.90;;
44816;SDS011;30529;53.570;9.964;2023-04-01T13:57:48;4.23;;;1.70;;
44816;SDS011;30529;53.570;9.964;2023-04-01T14:03:28;4.10;;;2.07;;
44816;SDS011;30529;53.570;9.964;2023-04-01T14:06:05;2.97;;;2.00;;
44816;SDS011;30529;53.570;9.964;2023-04-01T14:11:33;4.13;;;2.17;;
44816;SDS011;30529;53.570;9.964;2023-04-01T14:14:21;4.17;;;1.87;;
44816;SDS011;30529;53.570;9.964;2023-04-01T14:25:10;3.80;;;2.00;;
44816;SDS011;30529;53.570;9.964;2023-04-01T14:27:50;3.53;;;2.00;;
44816;SDS011;30529;53.570;9.964;2023-04-01T14:30:35;6.20;;;2.10;;
44816;SDS011;30529;53.570;9.964;2023-04-01T14:33:23;4.50;;;2.10;;
44816;SDS011;30529;53.570;9.964;2023-04-01T14:41:59;3.27;;;2.30;;
44816;SDS011;30529;53.570;9.964;2023-04-01T14:44:33;4.00;;;2.27;;
44816;SDS011;30529;53.570;9.964;2023-04-01T14:47:08;2.90;;;1.80;;
44816;SDS011;30529;53.570;9.964;2023-04-01T14:49:46;3.07;;;2.10;;
44816;SDS011;30529;53.570;9.964;2023-04-01T14:52:28;7.93;;;2.60;;
44816;SDS011;30529;53.570;9.964;2023-04-01T14:54:59;4.30;;;2.03;;
44816;SDS011;30529;53.570;9.964;2023-04-01T14:57:36;2.80;;;1.63;;
44816;SDS011;30529;53.570;9.964;2023-04-01T15:00:15;2.40;;;1.67;;
44816;SDS011;30529;53.570;9.964;2023-04-01T15:02:45;3.73;;;1.97;;
44816;SDS011;30529;53.570;9.964;2023-04-01T15:18:51;5.40;;;2.27;;
44816;SDS011;30529;53.570;9.964;2023-04-01T15:27:15;5.73;;;2.63;;
44816;SDS011;30529;53.570;9.964;2023-04-01T15:32:42;6.40;;;2.70;;
44816;SDS011;30529;53.570;9.964;2023-04-01T15:35:45;6.07;;;2.87;;
44816;SDS011;30529;53.570;9.964;2023-04-01T15:38:44;4.37;;;2.40;;
44816;SDS011;30529;53.570;9.964;2023-04-01T15:49:56;7.63;;;3.43;;
44816;SDS011;30529;53.570;9.964;2023-04-01T15:55:43;6.00;;;3.43;;
44816;SDS011;30529;53.570;9.964;2023-04-01T15:58:35;9.50;;;3.57;;
44816;SDS011;30529;53.570;9.964;2023-04-01T16:01:35;7.43;;;3.37;;
44816;SDS011;30529;53.570;9.964;2023-04-01T16:04:17;7.07;;;3.77;;
44816;SDS011;30529;53.570;9.964;2023-04-01T16:09:43;7.00;;;3.30;;
44816;SDS011;30529;53.570;9.964;2023-04-01T16:12:44;7.33;;;3.30;;
44816;SDS011;30529;53.570;9.964;2023-04-01T16:15:37;6.60;;;2.83;;
44816;SDS011;30529;53.570;9.964;2023-04-01T16:23:59;5.73;;;3.23;;
44816;SDS011;30529;53.570;9.964;2023-04-01T16:26:55;6.33;;;3.90;;
44816;SDS011;30529;53.570;9.964;2023-04-01T16:29:32;7.33;;;3.33;;
44816;SDS011;30529;53.570;9.964;2023-04-01T16:38:22;6.67;;;3.20;;
44816;SDS011;30529;53.570;9.964;2023-04-01T16:41:07;6.87;;;2.90;;
44816;SDS011;30529;53.570;9.964;2023-04-01T16:43:44;5.87;;;3.10;;
44816;SDS011;30529;53.570;9.964;2023-04-01T16:46:32;5.80;;;2.60;;
44816;SDS011;30529;53.570;9.964;2023-04-01T16:49:13;5.00;;;2.97;;
44816;SDS011;30529;53.570;9.964;2023-04-01T16:51:57;6.60;;;3.63;;
44816;SDS011;30529;53.570;9.964;2023-04-01T16:54:47;5.77;;;3.03;;
44816;SDS011;30529;53.570;9.964;2023-04-01T16:57:43;7.47;;;3.33;;
44816;SDS011;30529;53.570;9.964;2023-04-01T17:03:08;6.67;;;3.50;;
44816;SDS011;30529;53.570;9.964;2023-04-01T17:09:01;7.67;;;3.73;;
44816;SDS011;30529;53.570;9.964;2023-04-01T17:11:24;11.10;;;3.90;;
44816;SDS011;30529;53.570;9.964;2023-04-01T17:14:14;5.97;;;3.23;;
44816;SDS011;30529;53.570;9.964;2023-04-01T17:17:28;6.83;;;3.40;;
44816;SDS011;30529;53.570;9.964;2023-04-01T17:20:14;8.47;;;2.97;;
44816;SDS011;30529;53.570;9.964;2023-04-01T17:23:03;9.83;;;3.70;;
44816;SDS011;30529;53.570;9.964;2023-04-01T17:28:05;9.73;;;3.90;;
44816;SDS011;30529;53.570;9.964;2023-04-01T17:36:33;6.60;;;2.77;;
44816;SDS011;30529;53.570;9.964;2023-04-01T17:39:26;5.77;;;2.30;;
44816;SDS011;30529;53.570;9.964;2023-04-01T17:44:49;5.27;;;2.53;;
44816;SDS011;30529;53.570;9.964;2023-04-01T17:52:37;4.53;;;2.47;;
44816;SDS011;30529;53.570;9.964;2023-04-01T17:55:26;5.80;;;2.57;;
44816;SDS011;30529;53.570;9.964;2023-04-01T17:58:21;7.43;;;2.70;;
44816;SDS011;30529;53.570;9.964;2023-04-01T18:04:25;5.57;;;2.30;;
44816;SDS011;30529;53.570;9.964;2023-04-01T18:07:38;5.20;;;1.93;;
44816;SDS011;30529;53.570;9.964;2023-04-01T18:10:31;3.93;;;2.20;;
44816;SDS011;30529;53.570;9.964;2023-04-01T18:16:03;6.43;;;2.37;;
44816;SDS011;30529;53.570;9.964;2023-04-01T18:24:14;6.50;;;2.43;;
44816;SDS011;30529;53.570;9.964;2023-04-01T18:27:09;5.33;;;1.73;;
44816;SDS011;30529;53.570;9.964;2023-04-01T18:32:37;4.40;;;1.97;;
44816;SDS011;30529;53.570;9.964;2023-04-01T18:35:34;6.00;;;2.50;;
44816;SDS011;30529;53.570;9.964;2023-04-01T18:38:29;3.97;;;2.60;;
44816;SDS011;30529;53.570;9.964;2023-04-01T18:44:19;4.20;;;1.70;;
44816;SDS011;30529;53.570;9.964;2023-04-01T18:49:46;5.33;;;2.50;;
44816;SDS011;30529;53.570;9.964;2023-04-01T18:52:33;4.23;;;2.10;;
44816;SDS011;30529;53.570;9.964;2023-04-01T18:55:18;4.40;;;2.47;;
44816;SDS011;30529;53.570;9.964;2023-04-01T18:57:54;3.93;;;2.07;;
44816;SDS011;30529;53.570;9.964;2023-04-01T19:00:36;4.87;;;2.67;;
44816;SDS011;30529;53.570;9.964;2023-04-01T19:03:20;6.23;;;2.77;;
44816;SDS011;30529;53.570;9.964;2023-04-01T19:06:00;7.13;;;2.57;;
44816;SDS011;30529;53.570;9.964;2023-04-01T19:08:34;5.93;;;2.97;;
44816;SDS011;30529;53.570;9.964;2023-04-01T19:11:26;3.93;;;2.30;;
44816;SDS011;30529;53.570;9.964;2023-04-01T19:14:19;5.20;;;2.50;;
44816;SDS011;30529;53.570;9.964;2023-04-01T19:19:49;5.77;;;2.80;;
44816;SDS011;30529;53.570;9.964;2023-04-01T19:25:35;3.77;;;2.30;;
44816;SDS011;30529;53.570;9.964;2023-04-01T19:36:15;4.63;;;2.43;;
44816;SDS011;30529;53.570;9.964;2023-04-01T19:41:41;5.90;;;2.40;;
44816;SDS011;30529;53.570;9.964;2023-04-01T19:52:45;8.87;;;2.47;;
44816;SDS011;30529;53.570;9.964;2023-04-01T20:01:19;4.50;;;2.57;;
44816;SDS011;30529;53.570;9.964;2023-04-01T20:04:17;6.93;;;2.07;;
44816;SDS011;30529;53.570;9.964;2023-04-01T20:06:55;4.33;;;1.90;;
44816;SDS011;30529;53.570;9.964;2023-04-01T20:15:28;6.97;;;2.57;;
44816;SDS011;30529;53.570;9.964;2023-04-01T20:18:04;5.77;;;1.93;;
44816;SDS011;30529;53.570;9.964;2023-04-01T20:20:40;2.80;;;1.97;;
44816;SDS011;30529;53.570;9.964;2023-04-01T20:23:23;4.40;;;1.60;;
44816;SDS011;30529;53.570;9.964;2023-04-01T20:26:02;7.47;;;2.53;;
44816;SDS011;30529;53.570;9.964;2023-04-01T20:28:42;7.93;;;2.40;;
44816;SDS011;30529;53.570;9.964;2023-04-01T20:36:46;5.97;;;1.70;;
44816;SDS011;30529;53.570;9.964;2023-04-01T20:39:34;5.07;;;2.30;;
44816;SDS011;30529;53.570;9.964;2023-04-01T20:45:27;5.60;;;1.93;;
44816;SDS011;30529;53.570;9.964;2023-04-01T20:48:02;3.13;;;1.93;;
44816;SDS011;30529;53.570;9.964;2023-04-01T20:50:36;13.03;;;5.80;;
44816;SDS011;30529;53.570;9.964;2023-04-01T20:56:09;4.90;;;2.50;;
44816;SDS011;30529;53.570;9.964;2023-04-01T20:58:56;7.53;;;3.33;;
44816;SDS011;30529;53.570;9.964;2023-04-01T21:01:40;7.60;;;2.33;;
44816;SDS011;30529;53.570;9.964;2023-04-01T21:04:28;3.90;;;2.10;;
44816;SDS011;30529;53.570;9.964;2023-04-01T21:07:41;7.57;;;2.20;;
44816;SDS011;30529;53.570;9.964;2023-04-01T21:26:41;5.20;;;2.37;;
44816;SDS011;30529;53.570;9.964;2023-04-01T21:46:02;6.37;;;2.93;;
44816;SDS011;30529;53.570;9.964;2023-04-01T21:48:59;8.20;;;1.93;;
44816;SDS011;30529;53.570;9.964;2023-04-01T21:51:50;6.83;;;2.33;;
44816;SDS011;30529;53.570;9.964;2023-04-01T21:54:35;3.33;;;2.03;;
44816;SDS011;30529;53.570;9.964;2023-04-01T22:00:13;3.67;;;1.83;;
44816;SDS011;30529;53.570;9.964;2023-04-01T22:19:19;5.30;;;1.70;;
44816;SDS011;30529;53.570;9.964;2023-04-01T22:21:56;5.83;;;1.50;;
44816;SDS011;30529;53.570;9.964;2023-04-01T22:27:30;3.70;;;1.60;;
44816;SDS011;30529;53.570;9.964;2023-04-01T22:30:27;2.97;;;1.67;;
44816;SDS011;30529;53.570;9.964;2023-04-01T22:33:27;2.20;;;1.40;;
44816;SDS011;30529;53.570;9.964;2023-04-01T22:36:13;6.43;;;1.73;;
44816;SDS011;30529;53.570;9.964;2023-04-01T22:41:49;4.43;;;1.43;;
44816;SDS011;30529;53.570;9.964;2023-04-01T22:49:55;4.57;;;1.83;;
44816;SDS011;30529;53.570;9.964;2023-04-01T22:52:31;3.80;;;1.37;;
44816;SDS011;30529;53.570;9.964;2023-04-01T22:55:25;5.80;;;1.70;;
44816;SDS011;30529;53.570;9.964;2023-04-01T22:57:52;6.93;;;1.40;;
44816;SDS011;30529;53.570;9.964;2023-04-01T23:00:34;6.33;;;1.40;;
44816;SDS011;30529;53.570;9.964;2023-04-01T23:03:27;6.20;;;1.57;;
44816;SDS011;30529;53.570;9.964;2023-04-01T23:05:59;4.93;;;1.23;;
44816;SDS011;30529;53.570;9.964;2023-04-01T23:11:22;3.60;;;1.33;;
44816;SDS011;30529;53.570;9.964;2023-04-01T23:13:53;2.93;;;1.27;;
44816;SDS011;30529;53.570;9.964;2023-04-01T23:16:45;2.13;;;1.03;;
44816;SDS011;30529;53.570;9.964;2023-04-01T23:19:25;4.33;;;1.53;;
44816;SDS011;30529;53.570;9.964;2023-04-01T23:24:38;5.73;;;1.20;;
44816;SDS011;30529;53.570;9.964;2023-04-01T23:27:21;6.87;;;1.33;;
44816;SDS011;30529;53.570;9.964;2023-04-01T23:29:53;4.50;;;1.40;;
44816;SDS011;30529;53.570;9.964;2023-04-01T23:32:19;8.70;;;1.97;;
44816;SDS011;30529;53.570;9.964;2023-04-01T23:34:52;2.03;;;1.33;;
44816;SDS011;30529;53.570;9.964;2023-04-01T23:37:25;4.03;;;1.13;;
44816;SDS011;30529;53.570;9.964;2023-04-01T23:40:01;4.43;;;1.97;;
44816;SDS011;30529;53.570;9.964;2023-04-01T23:42:38;6.80;;;1.17;;
44816;SDS011;30529;53.570;9.964;2023-04-01T23:45:11;2.97;;;1.03;;